ANG90 AYPY-YBCS
Flight info
| Callsign | ANG90 |
|---|---|
| Flight time | 0h 56m |
| Altitude | 35000 |
| Route | MEMIG A216 CS |
| Aircraft | B738/M-SDE2E3FGHIRWXY/LB1 |
Departure
| Time | 2026-04-27 09:22 |
|---|---|
| Airport | Port Moresby Jacksons International Airport (AYPY) |
Arrival
| Time | 2026-04-27 10:18 |
|---|---|
| Airport | Cairns International Airport (YBCS) |
| Time | Latitude | Longitude | Altitude | Speed | Heading |
|---|---|---|---|---|---|
| 2026-04-27 07:41 | -9.43875 | 147.21213 | 137 ft | 0 kts | 237° |
| 2026-04-27 08:43 | -9.43871 | 147.21219 | 137 ft | 2 kts | 237° |
| 2026-04-27 08:43 | -9.43868 | 147.21233 | 137 ft | 2 kts | 275° |
| 2026-04-27 08:43 | -9.43868 | 147.21246 | 137 ft | 1 kts | 262° |
| 2026-04-27 08:44 | -9.43867 | 147.21268 | 137 ft | 3 kts | 260° |
| 2026-04-27 08:44 | -9.43863 | 147.21283 | 137 ft | 1 kts | 211° |
| 2026-04-27 08:44 | -9.43858 | 147.21291 | 137 ft | 0 kts | 204° |
| 2026-04-27 08:44 | -9.43845 | 147.21294 | 137 ft | 2 kts | 181° |
| 2026-04-27 08:45 | -9.43835 | 147.21291 | 137 ft | 0 kts | 151° |
| 2026-04-27 08:45 | -9.43829 | 147.21286 | 137 ft | 1 kts | 147° |
| 2026-04-27 08:47 | -9.43829 | 147.21287 | 137 ft | 0 kts | 147° |
| 2026-04-27 08:47 | -9.43830 | 147.21287 | 137 ft | 1 kts | 146° |
| 2026-04-27 08:48 | -9.43828 | 147.21373 | 137 ft | 12 kts | 24° |
| 2026-04-27 08:48 | -9.43812 | 147.21372 | 137 ft | 5 kts | 342° |
| 2026-04-27 08:48 | -9.43652 | 147.21277 | 137 ft | 37 kts | 328° |
| 2026-04-27 08:48 | -9.43444 | 147.21149 | 138 ft | 22 kts | 328° |
| 2026-04-27 08:49 | -9.43400 | 147.21115 | 138 ft | 2 kts | 313° |
| 2026-04-27 08:49 | -9.43432 | 147.21149 | 138 ft | 29 kts | 166° |
| 2026-04-27 08:49 | -9.43524 | 147.21197 | 138 ft | 7 kts | 139° |
| 2026-04-27 08:49 | -9.43648 | 147.21268 | 137 ft | 34 kts | 170° |
| 2026-04-27 08:50 | -9.43746 | 147.21245 | 137 ft | 5 kts | 168° |
| 2026-04-27 08:50 | -9.43789 | 147.21243 | 137 ft | 1 kts | 282° |
| 2026-04-27 08:50 | -9.43700 | 147.21181 | 137 ft | 12 kts | 346° |
| 2026-04-27 08:50 | -9.43689 | 147.21185 | 137 ft | 0 kts | 103° |
| 2026-04-27 09:20 | -9.43690 | 147.21188 | 137 ft | 1 kts | 103° |
| 2026-04-27 09:20 | -9.43698 | 147.21277 | 137 ft | 8 kts | 57° |
| 2026-04-27 09:20 | -9.43560 | 147.21223 | 137 ft | 42 kts | 331° |
| 2026-04-27 09:20 | -9.43308 | 147.21092 | 138 ft | 29 kts | 23° |
| 2026-04-27 09:21 | -9.43191 | 147.21246 | 138 ft | 28 kts | 57° |
| 2026-04-27 09:21 | -9.43125 | 147.21428 | 138 ft | 1 kts | 148° |
| 2026-04-27 09:21 | -9.43173 | 147.21454 | 138 ft | 42 kts | 148° |
| 2026-04-27 09:21 | -9.43777 | 147.21831 | 154 ft | 155 kts | 144° |
| 2026-04-27 09:22 | -9.44879 | 147.22392 | 1004 ft | 194 kts | 166° |
| 2026-04-27 09:22 | -9.46193 | 147.22343 | 2507 ft | 198 kts | 185° |
| 2026-04-27 09:22 | -9.47648 | 147.22064 | 3142 ft | 229 kts | 194° |
| 2026-04-27 09:22 | -9.49172 | 147.21436 | 4167 ft | 248 kts | 202° |
| 2026-04-27 09:23 | -9.50775 | 147.20700 | 5323 ft | 262 kts | 202° |
| 2026-04-27 09:23 | -9.52472 | 147.19992 | 6386 ft | 277 kts | 200° |
| 2026-04-27 09:23 | -9.54304 | 147.19289 | 7517 ft | 289 kts | 200° |
| 2026-04-27 09:23 | -9.56209 | 147.18574 | 8783 ft | 294 kts | 201° |
| 2026-04-27 09:24 | -9.58115 | 147.17860 | 10031 ft | 297 kts | 202° |
| 2026-04-27 09:24 | -9.60087 | 147.17117 | 11049 ft | 309 kts | 202° |
| 2026-04-27 09:24 | -9.62136 | 147.16342 | 11877 ft | 325 kts | 202° |
| 2026-04-27 09:24 | -9.64314 | 147.15518 | 12663 ft | 342 kts | 203° |
| 2026-04-27 09:25 | -9.66599 | 147.14651 | 13427 ft | 357 kts | 203° |
| 2026-04-27 09:25 | -9.68986 | 147.13745 | 14087 ft | 374 kts | 203° |
| 2026-04-27 09:25 | -9.71487 | 147.12797 | 14731 ft | 390 kts | 202° |
| 2026-04-27 09:25 | -9.74081 | 147.11816 | 15310 ft | 405 kts | 202° |
| 2026-04-27 09:26 | -9.76771 | 147.10803 | 15850 ft | 420 kts | 202° |
| 2026-04-27 09:26 | -9.79583 | 147.09746 | 16354 ft | 434 kts | 202° |
| 2026-04-27 09:26 | -9.82467 | 147.08661 | 17009 ft | 442 kts | 202° |
| 2026-04-27 09:26 | -9.85358 | 147.07575 | 17838 ft | 445 kts | 202° |
| 2026-04-27 09:27 | -9.88283 | 147.06473 | 18502 ft | 452 kts | 202° |
| 2026-04-27 09:27 | -9.91247 | 147.05353 | 19242 ft | 457 kts | 202° |
| 2026-04-27 09:27 | -9.94277 | 147.04208 | 19916 ft | 463 kts | 202° |
| 2026-04-27 09:27 | -9.97324 | 147.03058 | 20563 ft | 469 kts | 202° |
| 2026-04-27 09:28 | -10.00422 | 147.01886 | 21195 ft | 475 kts | 202° |
| 2026-04-27 09:28 | -10.03537 | 147.00708 | 21873 ft | 479 kts | 203° |
| 2026-04-27 09:28 | -10.06699 | 146.99512 | 22459 ft | 485 kts | 203° |
| 2026-04-27 09:28 | -10.09870 | 146.98312 | 23192 ft | 488 kts | 203° |
| 2026-04-27 09:29 | -10.13077 | 146.97098 | 23843 ft | 492 kts | 204° |
| 2026-04-27 09:29 | -10.16281 | 146.95880 | 24543 ft | 494 kts | 204° |
| 2026-04-27 09:29 | -10.19571 | 146.94632 | 25196 ft | 498 kts | 204° |
| 2026-04-27 09:29 | -10.22812 | 146.93405 | 26068 ft | 495 kts | 204° |
| 2026-04-27 09:30 | -10.26032 | 146.92189 | 27047 ft | 490 kts | 204° |
| 2026-04-27 09:30 | -10.29190 | 146.90997 | 28146 ft | 482 kts | 204° |
| 2026-04-27 09:30 | -10.32342 | 146.89807 | 29127 ft | 477 kts | 204° |
| 2026-04-27 09:30 | -10.35480 | 146.88615 | 29499 ft | 486 kts | 204° |
| 2026-04-27 09:31 | -10.38643 | 146.87410 | 30077 ft | 489 kts | 204° |
| 2026-04-27 09:31 | -10.41872 | 146.86180 | 30769 ft | 490 kts | 204° |
| 2026-04-27 09:31 | -10.45072 | 146.84963 | 31304 ft | 494 kts | 204° |
| 2026-04-27 09:31 | -10.48313 | 146.83731 | 31897 ft | 496 kts | 204° |
| 2026-04-27 09:32 | -10.51568 | 146.82497 | 32466 ft | 499 kts | 204° |
| 2026-04-27 09:32 | -10.54861 | 146.81245 | 33202 ft | 498 kts | 204° |
| 2026-04-27 09:32 | -10.58085 | 146.80022 | 34221 ft | 492 kts | 204° |
| 2026-04-27 09:32 | -10.61283 | 146.78806 | 34801 ft | 493 kts | 204° |
| 2026-04-27 09:33 | -10.65284 | 146.77280 | 34884 ft | 501 kts | 204° |
| 2026-04-27 09:33 | -11.05224 | 146.62141 | 34903 ft | 492 kts | 205° |
| 2026-04-27 09:34 | -12.08773 | 146.22469 | 34872 ft | 477 kts | 206° |
| 2026-04-27 09:34 | -12.23565 | 146.16754 | 34921 ft | 477 kts | 206° |
| 2026-04-27 09:35 | -12.29816 | 146.14369 | 34915 ft | 476 kts | 206° |
| 2026-04-27 09:35 | -12.36046 | 146.11990 | 34911 ft | 477 kts | 206° |
| 2026-04-27 09:36 | -12.42289 | 146.09593 | 34910 ft | 476 kts | 207° |
| 2026-04-27 09:36 | -12.48543 | 146.07190 | 34906 ft | 476 kts | 207° |
| 2026-04-27 09:37 | -12.54742 | 146.04799 | 34906 ft | 474 kts | 207° |
| 2026-04-27 09:37 | -12.60933 | 146.02409 | 34907 ft | 473 kts | 207° |
| 2026-04-27 09:38 | -12.67136 | 146.00017 | 34906 ft | 472 kts | 207° |
| 2026-04-27 09:38 | -12.73341 | 145.97623 | 34906 ft | 474 kts | 207° |
| 2026-04-27 09:39 | -12.79506 | 145.95244 | 34906 ft | 472 kts | 207° |
| 2026-04-27 09:39 | -12.85655 | 145.92873 | 34907 ft | 471 kts | 207° |
| 2026-04-27 09:40 | -12.91834 | 145.90486 | 34903 ft | 469 kts | 207° |
| 2026-04-27 09:40 | -12.97976 | 145.88110 | 34908 ft | 470 kts | 207° |
| 2026-04-27 09:41 | -13.04101 | 145.85736 | 34910 ft | 470 kts | 207° |
| 2026-04-27 09:41 | -13.10277 | 145.83339 | 34906 ft | 470 kts | 207° |
| 2026-04-27 09:42 | -13.16429 | 145.80957 | 34906 ft | 469 kts | 208° |
| 2026-04-27 09:42 | -13.22577 | 145.78572 | 34911 ft | 470 kts | 207° |
| 2026-04-27 09:43 | -13.28677 | 145.76209 | 34919 ft | 467 kts | 207° |
| 2026-04-27 09:43 | -13.34810 | 145.73827 | 34923 ft | 469 kts | 208° |
| 2026-04-27 09:44 | -13.40904 | 145.71460 | 34925 ft | 466 kts | 208° |
| 2026-04-27 09:44 | -13.46978 | 145.69102 | 34925 ft | 467 kts | 208° |
| 2026-04-27 09:45 | -13.53114 | 145.66715 | 34927 ft | 468 kts | 208° |
| 2026-04-27 09:45 | -13.59158 | 145.64371 | 34925 ft | 464 kts | 208° |
| 2026-04-27 09:46 | -13.65273 | 145.61990 | 34926 ft | 465 kts | 208° |
| 2026-04-27 09:46 | -13.71368 | 145.59621 | 34926 ft | 467 kts | 208° |
| 2026-04-27 09:47 | -13.77446 | 145.57254 | 34925 ft | 464 kts | 208° |
| 2026-04-27 09:47 | -13.83501 | 145.54892 | 34927 ft | 464 kts | 208° |
| 2026-04-27 09:48 | -13.89595 | 145.52512 | 34926 ft | 463 kts | 208° |
| 2026-04-27 09:48 | -13.95636 | 145.50154 | 34926 ft | 462 kts | 208° |
| 2026-04-27 09:49 | -14.01647 | 145.47806 | 34926 ft | 464 kts | 208° |
| 2026-04-27 09:49 | -14.07725 | 145.45435 | 34927 ft | 462 kts | 208° |
| 2026-04-27 09:50 | -14.13814 | 145.43057 | 34927 ft | 464 kts | 208° |
| 2026-04-27 09:50 | -14.19849 | 145.40695 | 34927 ft | 462 kts | 208° |
| 2026-04-27 09:51 | -14.25853 | 145.38350 | 34929 ft | 458 kts | 208° |
| 2026-04-27 09:51 | -14.31855 | 145.36015 | 34933 ft | 463 kts | 208° |
| 2026-04-27 09:52 | -14.38297 | 145.34383 | 34930 ft | 481 kts | 192° |
| 2026-04-27 09:52 | -14.41751 | 145.34456 | 34936 ft | 492 kts | 182° |
| 2026-04-27 09:52 | -14.45165 | 145.34857 | 34936 ft | 496 kts | 179° |
| 2026-04-27 09:53 | -14.52005 | 145.36023 | 34935 ft | 496 kts | 178° |
| 2026-04-27 09:53 | -14.58881 | 145.37280 | 34937 ft | 496 kts | 178° |
| 2026-04-27 09:54 | -14.65688 | 145.38461 | 34941 ft | 496 kts | 178° |
| 2026-04-27 09:54 | -14.72530 | 145.39594 | 34942 ft | 495 kts | 179° |
| 2026-04-27 09:55 | -14.79392 | 145.40710 | 34944 ft | 497 kts | 179° |
| 2026-04-27 09:55 | -14.89669 | 145.42371 | 34944 ft | 495 kts | 179° |
| 2026-04-27 09:56 | -14.96517 | 145.43486 | 34945 ft | 494 kts | 179° |
| 2026-04-27 09:56 | -15.03354 | 145.44595 | 34948 ft | 498 kts | 179° |
| 2026-04-27 09:57 | -15.10242 | 145.45715 | 34949 ft | 499 kts | 179° |
| 2026-04-27 09:57 | -15.17215 | 145.46855 | 34950 ft | 495 kts | 179° |
| 2026-04-27 09:58 | -15.24104 | 145.47984 | 34951 ft | 498 kts | 179° |
| 2026-04-27 09:58 | -15.30955 | 145.49100 | 34955 ft | 496 kts | 179° |
| 2026-04-27 09:59 | -15.37749 | 145.50186 | 34521 ft | 484 kts | 180° |
| 2026-04-27 09:59 | -15.41094 | 145.50705 | 33609 ft | 486 kts | 180° |
| 2026-04-27 09:59 | -15.44456 | 145.51221 | 32627 ft | 488 kts | 180° |
| 2026-04-27 10:00 | -15.47794 | 145.51739 | 31727 ft | 491 kts | 179° |
| 2026-04-27 10:00 | -15.51189 | 145.52277 | 30765 ft | 493 kts | 179° |
| 2026-04-27 10:00 | -15.54595 | 145.52823 | 29746 ft | 495 kts | 179° |
| 2026-04-27 10:00 | -15.58010 | 145.53380 | 28683 ft | 497 kts | 178° |
| 2026-04-27 10:01 | -15.61461 | 145.53947 | 27558 ft | 499 kts | 178° |
| 2026-04-27 10:01 | -15.64859 | 145.54511 | 26401 ft | 501 kts | 177° |
| 2026-04-27 10:01 | -15.68321 | 145.55087 | 25166 ft | 503 kts | 176° |
| 2026-04-27 10:01 | -15.71786 | 145.55667 | 24132 ft | 499 kts | 175° |
| 2026-04-27 10:02 | -15.75172 | 145.56236 | 23360 ft | 490 kts | 175° |
| 2026-04-27 10:02 | -15.78534 | 145.56804 | 22548 ft | 483 kts | 174° |
| 2026-04-27 10:02 | -15.81805 | 145.57355 | 21732 ft | 476 kts | 174° |
| 2026-04-27 10:02 | -15.85078 | 145.57903 | 20892 ft | 470 kts | 174° |
| 2026-04-27 10:03 | -15.88316 | 145.58444 | 20044 ft | 464 kts | 174° |
| 2026-04-27 10:03 | -15.91480 | 145.58974 | 19205 ft | 459 kts | 174° |
| 2026-04-27 10:03 | -15.94598 | 145.59494 | 18361 ft | 453 kts | 174° |
| 2026-04-27 10:03 | -15.97744 | 145.60019 | 17511 ft | 447 kts | 174° |
| 2026-04-27 10:04 | -16.00797 | 145.60481 | 16654 ft | 441 kts | 176° |
| 2026-04-27 10:04 | -16.03808 | 145.60747 | 15815 ft | 433 kts | 180° |
| 2026-04-27 10:04 | -16.06806 | 145.60822 | 15030 ft | 425 kts | 182° |
| 2026-04-27 10:04 | -16.09768 | 145.60786 | 14241 ft | 418 kts | 183° |
| 2026-04-27 10:05 | -16.12680 | 145.60706 | 13470 ft | 410 kts | 183° |
| 2026-04-27 10:05 | -16.15592 | 145.60612 | 12691 ft | 403 kts | 183° |
| 2026-04-27 10:05 | -16.18422 | 145.60530 | 11927 ft | 396 kts | 182° |
| 2026-04-27 10:05 | -16.21157 | 145.60460 | 11183 ft | 389 kts | 181° |
| 2026-04-27 10:06 | -16.23858 | 145.60399 | 10556 ft | 379 kts | 181° |
| 2026-04-27 10:06 | -16.26445 | 145.60347 | 10405 ft | 356 kts | 181° |
| 2026-04-27 10:06 | -16.28850 | 145.60301 | 10341 ft | 334 kts | 180° |
| 2026-04-27 10:06 | -16.31117 | 145.60257 | 10236 ft | 315 kts | 180° |
| 2026-04-27 10:07 | -16.33267 | 145.60214 | 10044 ft | 302 kts | 181° |
| 2026-04-27 10:07 | -16.35358 | 145.60169 | 9683 ft | 296 kts | 180° |
| 2026-04-27 10:07 | -16.37414 | 145.60132 | 9293 ft | 292 kts | 180° |
| 2026-04-27 10:07 | -16.39436 | 145.60098 | 8926 ft | 287 kts | 180° |
| 2026-04-27 10:08 | -16.41444 | 145.60066 | 8560 ft | 282 kts | 179° |
| 2026-04-27 10:08 | -16.43369 | 145.60030 | 8196 ft | 268 kts | 179° |
| 2026-04-27 10:08 | -16.45188 | 145.59994 | 7877 ft | 253 kts | 179° |
| 2026-04-27 10:08 | -16.46926 | 145.59961 | 7572 ft | 248 kts | 179° |
| 2026-04-27 10:09 | -16.48667 | 145.59929 | 7253 ft | 247 kts | 179° |
| 2026-04-27 10:09 | -16.50409 | 145.59900 | 6926 ft | 254 kts | 179° |
| 2026-04-27 10:09 | -16.52240 | 145.59871 | 6590 ft | 262 kts | 179° |
| 2026-04-27 10:09 | -16.54057 | 145.59755 | 6251 ft | 261 kts | 188° |
| 2026-04-27 10:10 | -16.55831 | 145.59538 | 5970 ft | 251 kts | 173° |
| 2026-04-27 10:10 | -16.57418 | 145.60175 | 5682 ft | 242 kts | 142° |
| 2026-04-27 10:10 | -16.58705 | 145.61246 | 5420 ft | 232 kts | 146° |
| 2026-04-27 10:10 | -16.60142 | 145.61912 | 5213 ft | 219 kts | 155° |
| 2026-04-27 10:11 | -16.61493 | 145.62608 | 5029 ft | 207 kts | 152° |
| 2026-04-27 10:11 | -16.62746 | 145.63234 | 4958 ft | 192 kts | 152° |
| 2026-04-27 10:11 | -16.63924 | 145.63847 | 4768 ft | 184 kts | 149° |
| 2026-04-27 10:11 | -16.65049 | 145.64487 | 4530 ft | 180 kts | 151° |
| 2026-04-27 10:12 | -16.66181 | 145.65073 | 4226 ft | 182 kts | 151° |
| 2026-04-27 10:12 | -16.67322 | 145.65633 | 4040 ft | 175 kts | 153° |
| 2026-04-27 10:12 | -16.68433 | 145.66110 | 3809 ft | 174 kts | 155° |
| 2026-04-27 10:12 | -16.69543 | 145.66569 | 3636 ft | 169 kts | 155° |
| 2026-04-27 10:13 | -16.70658 | 145.67027 | 3384 ft | 169 kts | 154° |
| 2026-04-27 10:13 | -16.71746 | 145.67520 | 3149 ft | 169 kts | 153° |
| 2026-04-27 10:13 | -16.72798 | 145.68036 | 2903 ft | 167 kts | 150° |
| 2026-04-27 10:13 | -16.73839 | 145.68590 | 2674 ft | 166 kts | 151° |
| 2026-04-27 10:14 | -16.74777 | 145.69057 | 2515 ft | 164 kts | 153° |
| 2026-04-27 10:14 | -16.75363 | 145.69325 | 2406 ft | 166 kts | 154° |
| 2026-04-27 10:14 | -16.76029 | 145.69589 | 2278 ft | 160 kts | 157° |
| 2026-04-27 10:14 | -16.77026 | 145.69959 | 2094 ft | 146 kts | 148° |
| 2026-04-27 10:15 | -16.77938 | 145.70395 | 1998 ft | 140 kts | 151° |
| 2026-04-27 10:15 | -16.78830 | 145.70844 | 1888 ft | 144 kts | 152° |
| 2026-04-27 10:15 | -16.79752 | 145.71283 | 1698 ft | 142 kts | 153° |
| 2026-04-27 10:15 | -16.80642 | 145.71669 | 1433 ft | 132 kts | 155° |
| 2026-04-27 10:16 | -16.81451 | 145.72055 | 1103 ft | 126 kts | 152° |
| 2026-04-27 10:16 | -16.82223 | 145.72433 | 829 ft | 118 kts | 156° |
| 2026-04-27 10:16 | -16.82968 | 145.72755 | 693 ft | 114 kts | 156° |
| 2026-04-27 10:16 | -16.83725 | 145.73080 | 622 ft | 122 kts | 155° |
| 2026-04-27 10:17 | -16.84577 | 145.73471 | 531 ft | 142 kts | 156° |
| 2026-04-27 10:17 | -16.85523 | 145.73880 | 321 ft | 144 kts | 157° |
| 2026-04-27 10:17 | -16.86424 | 145.74284 | 85 ft | 137 kts | 156° |
| 2026-04-27 10:17 | -16.87230 | 145.74649 | 19 ft | 100 kts | 155° |
| 2026-04-27 10:18 | -16.87651 | 145.74840 | 19 ft | 41 kts | 155° |
| 2026-04-27 10:18 | -16.87710 | 145.74945 | 19 ft | 4 kts | 62° |
| 2026-04-27 10:18 | -16.87699 | 145.74976 | 18 ft | 0 kts | 72° |
| 2026-04-27 10:18 | -16.87694 | 145.74989 | 18 ft | 8 kts | 72° |
| 2026-04-27 10:19 | -16.87692 | 145.74999 | 18 ft | 0 kts | 68° |
| 2026-04-27 10:19 | -16.87691 | 145.75000 | 18 ft | 1 kts | 68° |
| 2026-04-27 10:19 | -16.87629 | 145.75026 | 17 ft | 19 kts | 342° |
| 2026-04-27 10:19 | -16.87507 | 145.74973 | 17 ft | 19 kts | 338° |
| 2026-04-27 10:20 | -16.87402 | 145.74982 | 18 ft | 13 kts | 21° |
| 2026-04-27 10:20 | -16.87325 | 145.75030 | 18 ft | 12 kts | 52° |
| 2026-04-27 10:20 | -16.87283 | 145.75111 | 19 ft | 12 kts | 65° |
| 2026-04-27 10:20 | -16.87248 | 145.75192 | 21 ft | 11 kts | 67° |
| 2026-04-27 10:21 | -16.87222 | 145.75267 | 23 ft | 10 kts | 74° |
| 2026-04-27 10:21 | -16.87235 | 145.75302 | 24 ft | 2 kts | 136° |
| 2026-04-27 10:21 | -16.87250 | 145.75317 | 24 ft | 3 kts | 136° |
| 2026-04-27 10:21 | -16.87270 | 145.75333 | 24 ft | 4 kts | 153° |
| 2026-04-27 10:22 | -16.87295 | 145.75343 | 24 ft | 0 kts | 157° |